SAEZ Airport Information

Runway Information
Runway 11 Length 10827 ft width 197 ft
Elevation 62 ft Threshold 0 ft Heading 102
Runway 29 Length 10827 ft Width 197 ft
Elevation 66 ft Threshold 0 ft Heading 282
Runway 17 Length 10187 ft width 148 ft
Elevation 62 ft Threshold 0 ft Heading 164
Runway 35 Length 10187 ft Width 148 ft
Elevation 67 ft Threshold 984 ft Heading 344
Airport Frequencies
Type A/D Name BAIRES CON Frequency 124.9 MHZ
Type APP Name EZEIZA APP Frequency 119.9 MHZ
Type ATIS Name ATIS Frequency 127.8 MHZ
Type GCCD Name GND/CLNC D Frequency 121.75 MHZ
Type TWR Name EZEIZA TWR Frequency 118.6 MHZ
Airport Navaids
Type VOR-DME Name Ezeiza Frequency 116500 KHZ
Airport Weather Information & NOTAM
ADDS - METARS form results

(0126 UTC 26 February 2018)
 
METAR text: SAEZ 260100Z 11008KT CAVOK 21/16 Q1018
Conditions at: SAEZ (BUENOS AIRES/EZE, AR) observed 0100 UTC 26 February 2018
Temperature: 21.0°C (70°F)
Dewpoint: 16.0°C (61°F) [RH = 73%]
Pressure (altimeter): 30.06 inches Hg (1018.0 mb)
Winds: from the ESE (110 degrees) at 9 MPH (8 knots; 4.2 m/s)
Visibility: 6 or more miles (10+ km)
Ceiling: ceiling and visibility are OK
Clouds: unknown
Weather: no significant weather observed at this time